createdAt,value
2019-05-11T00:01:40.746Z,10.60
2019-05-11T00:04:10.148Z,10.60
2019-05-11T00:06:39.559Z,10.50
2019-05-11T00:09:08.844Z,10.50
2019-05-11T00:11:38.291Z,10.50
2019-05-11T00:14:07.857Z,10.50
2019-05-11T00:16:37.203Z,10.50
2019-05-11T00:19:06.582Z,10.50
2019-05-11T00:21:35.995Z,10.50
2019-05-11T00:24:05.381Z,10.50
2019-05-11T00:26:34.855Z,10.50
2019-05-11T00:29:04.293Z,10.50
2019-05-11T00:31:33.874Z,10.50
2019-05-11T00:34:03.089Z,10.40
2019-05-11T00:36:32.641Z,10.50
2019-05-11T00:39:02.035Z,10.50
2019-05-11T00:41:31.425Z,10.40
2019-05-11T00:44:00.910Z,10.50
2019-05-11T00:46:30.301Z,10.40
2019-05-11T00:48:59.644Z,10.40
2019-05-11T00:51:29.137Z,10.40
2019-05-11T00:53:58.486Z,10.40
2019-05-11T00:56:27.875Z,10.30
2019-05-11T00:58:57.404Z,10.30
2019-05-11T01:01:26.750Z,10.30
2019-05-11T01:03:56.086Z,10.30
2019-05-11T01:06:25.603Z,10.30
2019-05-11T01:08:54.862Z,10.20
2019-05-11T01:11:24.212Z,10.20
2019-05-11T01:13:53.659Z,10.20
2019-05-11T01:16:22.963Z,10.20
2019-05-11T01:18:52.390Z,10.20
2019-05-11T01:21:21.847Z,10.10
2019-05-11T01:23:51.167Z,10.10
2019-05-11T01:26:20.414Z,10.10
2019-05-11T01:28:49.835Z,10.10
2019-05-11T01:31:19.227Z,10.10
2019-05-11T01:33:48.538Z,10.10
2019-05-11T01:36:18.117Z,10.10
2019-05-11T01:38:47.456Z,10.10
2019-05-11T01:41:16.760Z,10.10
2019-05-11T01:43:46.222Z,10.10
2019-05-11T01:46:15.622Z,10.10
2019-05-11T01:48:44.984Z,10.10
2019-05-11T01:51:14.492Z,10.10
2019-05-11T01:53:43.891Z,10.10
2019-05-11T01:56:13.205Z,10.10
2019-05-11T01:58:42.712Z,10.10
2019-05-11T02:01:12.035Z,10.10
2019-05-11T02:03:41.322Z,10.10
2019-05-11T02:06:10.640Z,10.00
2019-05-11T02:08:39.896Z,10.00
2019-05-11T02:11:15.951Z,10.00
2019-05-11T02:13:40.092Z,10.00
2019-05-11T02:16:09.262Z,10.00
2019-05-11T02:18:38.559Z,9.90
2019-05-11T02:21:07.912Z,9.90
2019-05-11T02:23:37.160Z,9.90
2019-05-11T02:26:06.543Z,9.80
2019-05-11T02:28:35.978Z,9.80
2019-05-11T02:31:05.160Z,9.80
2019-05-11T02:33:34.392Z,9.80
2019-05-11T02:36:03.818Z,9.80
2019-05-11T02:38:33.179Z,9.80
2019-05-11T02:41:02.633Z,9.80
2019-05-11T02:43:32.028Z,9.90
2019-05-11T02:46:01.298Z,9.90
2019-05-11T02:48:30.457Z,9.90
2019-05-11T02:51:02.478Z,9.90
2019-05-11T02:53:32.701Z,9.90
2019-05-11T02:56:03.646Z,9.90
2019-05-11T02:58:33.059Z,10.00
2019-05-11T03:01:02.308Z,10.00
2019-05-11T03:03:31.597Z,10.00
2019-05-11T03:06:00.998Z,10.00
2019-05-11T03:08:30.332Z,10.00
2019-05-11T03:10:59.773Z,10.00
2019-05-11T03:13:29.217Z,10.00
2019-05-11T03:15:58.763Z,10.10
2019-05-11T03:18:27.940Z,10.10
2019-05-11T03:20:57.381Z,10.10
2019-05-11T03:23:26.616Z,10.00
2019-05-11T03:25:55.808Z,10.00
2019-05-11T03:28:25.092Z,10.00
2019-05-11T03:30:54.294Z,10.00
2019-05-11T03:33:23.551Z,10.00
2019-05-11T03:35:52.894Z,10.00
2019-05-11T03:38:22.370Z,10.00
2019-05-11T03:40:51.758Z,10.00
2019-05-11T03:43:21.022Z,9.90
2019-05-11T03:45:50.273Z,10.00
2019-05-11T03:48:19.445Z,10.00
2019-05-11T03:50:48.744Z,10.00
2019-05-11T03:53:18.029Z,9.90
2019-05-11T03:55:47.369Z,10.00
2019-05-11T03:58:16.893Z,10.00
2019-05-11T04:00:46.120Z,10.00
2019-05-11T04:03:15.463Z,10.00
2019-05-11T04:05:44.925Z,10.00
2019-05-11T04:08:14.297Z,10.10
2019-05-11T04:10:43.539Z,10.10
2019-05-11T04:13:12.961Z,10.20
2019-05-11T04:15:42.300Z,10.20
2019-05-11T04:18:11.777Z,10.20
2019-05-11T04:20:41.131Z,10.20
2019-05-11T04:23:10.477Z,10.20
2019-05-11T04:25:39.803Z,10.20
2019-05-11T04:28:09.069Z,10.20
2019-05-11T04:30:38.554Z,10.30
2019-05-11T04:33:07.882Z,10.30
2019-05-11T04:35:37.143Z,10.30
2019-05-11T04:38:06.430Z,10.20
2019-05-11T04:40:35.736Z,10.20
2019-05-11T04:43:05.027Z,10.30
2019-05-11T04:45:34.331Z,10.30
2019-05-11T04:48:04.006Z,10.30
2019-05-11T04:50:33.511Z,10.40
2019-05-11T04:53:02.934Z,10.40
2019-05-11T04:55:32.199Z,10.50
2019-05-11T04:58:01.471Z,10.60
2019-05-11T05:00:30.793Z,10.70
2019-05-11T05:03:00.128Z,10.80
2019-05-11T05:05:29.305Z,10.90
2019-05-11T05:08:09.128Z,11.10
2019-05-11T05:10:29.784Z,11.10
2019-05-11T05:13:10.347Z,11.30
2019-05-11T05:15:32.238Z,11.30
2019-05-11T05:18:01.551Z,11.50
2019-05-11T05:20:31.034Z,11.50
2019-05-11T05:23:00.530Z,11.60
2019-05-11T05:25:29.826Z,11.60
2019-05-11T05:27:59.162Z,11.70
2019-05-11T05:30:28.505Z,11.70
2019-05-11T05:32:57.810Z,11.80
2019-05-11T05:35:27.078Z,11.80
2019-05-11T05:37:56.410Z,11.90
2019-05-11T05:40:25.656Z,12.00
2019-05-11T05:42:54.996Z,12.00
2019-05-11T05:45:24.240Z,12.10
2019-05-11T05:47:53.538Z,12.10
2019-05-11T05:50:22.727Z,12.20
2019-05-11T05:52:52.053Z,12.40
2019-05-11T05:55:21.538Z,12.50
2019-05-11T05:57:50.795Z,12.60
2019-05-11T06:00:20.165Z,12.70
2019-05-11T06:02:49.466Z,12.80
2019-05-11T06:05:18.731Z,12.80
2019-05-11T06:07:47.942Z,12.90
2019-05-11T06:10:17.238Z,12.90
2019-05-11T06:12:46.525Z,13.00
2019-05-11T06:15:16.130Z,13.20
2019-05-11T06:17:45.600Z,13.40
2019-05-11T06:20:14.853Z,13.70
2019-05-11T06:22:44.100Z,13.80
2019-05-11T06:25:13.821Z,13.90
2019-05-11T06:27:43.097Z,13.90
2019-05-11T06:30:12.510Z,13.80
2019-05-11T06:32:41.830Z,13.70
2019-05-11T06:35:11.010Z,13.60
2019-05-11T06:37:40.450Z,13.50
2019-05-11T06:40:10.093Z,13.50
2019-05-11T06:42:39.447Z,13.40
2019-05-11T06:45:09.050Z,13.40
2019-05-11T06:47:38.364Z,13.40
2019-05-11T06:50:07.717Z,13.30
2019-05-11T06:52:36.903Z,13.30
2019-05-11T06:55:06.891Z,13.40
2019-05-11T06:57:36.055Z,13.50
2019-05-11T07:00:06.273Z,13.50
2019-05-11T07:02:35.595Z,13.50
2019-05-11T07:05:04.910Z,13.60
2019-05-11T07:07:46.457Z,13.80
2019-05-11T07:10:05.341Z,13.90
2019-05-11T07:12:34.623Z,14.10
2019-05-11T07:15:03.957Z,14.10
2019-05-11T07:17:33.462Z,14.20
2019-05-11T07:20:02.821Z,14.30
2019-05-11T07:22:32.148Z,14.40
2019-05-11T07:25:01.456Z,14.40
2019-05-11T07:27:30.727Z,14.50
2019-05-11T07:30:00.186Z,14.60
2019-05-11T07:32:29.503Z,14.60
2019-05-11T07:34:58.794Z,14.60
2019-05-11T07:37:28.183Z,14.70
2019-05-11T07:39:58.012Z,14.70
2019-05-11T07:42:28.558Z,14.80
2019-05-11T07:44:58.319Z,14.70
2019-05-11T07:47:27.891Z,14.70
2019-05-11T07:49:57.879Z,14.70
2019-05-11T07:52:28.725Z,14.80
2019-05-11T07:54:58.402Z,15.00
2019-05-11T07:57:28.404Z,15.00
2019-05-11T07:59:57.970Z,15.00
2019-05-11T08:02:28.159Z,15.00
2019-05-11T08:04:58.731Z,15.00
2019-05-11T08:07:28.591Z,15.10
2019-05-11T08:09:58.774Z,15.10
2019-05-11T08:12:28.620Z,15.10
2019-05-11T08:15:08.668Z,15.20
2019-05-11T08:17:29.351Z,15.20
2019-05-11T08:19:58.758Z,15.40
2019-05-11T08:22:28.545Z,15.50
2019-05-11T08:24:58.632Z,15.60
2019-05-11T08:27:28.610Z,15.70
2019-05-11T08:29:58.127Z,15.80
2019-05-11T08:32:28.617Z,15.80
2019-05-11T08:34:58.148Z,15.90
2019-05-11T08:37:28.352Z,15.80
2019-05-11T08:39:58.480Z,15.90
2019-05-11T08:42:28.875Z,16.00
2019-05-11T08:45:14.621Z,16.00
2019-05-11T08:47:29.311Z,16.00
2019-05-11T08:49:59.040Z,16.10
2019-05-11T08:52:28.467Z,16.20
2019-05-11T08:54:57.990Z,16.20
2019-05-11T08:57:28.556Z,16.20
2019-05-11T08:59:58.559Z,16.10
2019-05-11T09:02:27.989Z,16.20
2019-05-11T09:04:58.892Z,16.30
2019-05-11T09:07:28.091Z,16.30
2019-05-11T09:09:58.585Z,16.40
2019-05-11T09:12:28.900Z,16.50
2019-05-11T09:14:58.332Z,16.60
2019-05-11T09:17:28.885Z,16.70
2019-05-11T09:19:58.316Z,16.70
2019-05-11T09:22:28.346Z,16.80
2019-05-11T09:24:58.406Z,16.80
2019-05-11T09:27:28.596Z,16.90
2019-05-11T09:29:58.837Z,16.90
2019-05-11T09:32:28.700Z,17.00
2019-05-11T09:34:58.139Z,17.00
2019-05-11T09:37:28.035Z,17.10
2019-05-11T09:39:58.314Z,17.20
2019-05-11T09:42:28.563Z,17.20
2019-05-11T09:44:58.027Z,17.20
2019-05-11T09:47:28.070Z,17.10
2019-05-11T09:49:58.365Z,17.10
2019-05-11T09:52:32.568Z,17.10
2019-05-11T09:55:02.086Z,17.20
2019-05-11T09:57:31.408Z,17.30
2019-05-11T10:00:00.700Z,17.50
2019-05-11T10:02:30.276Z,17.70
2019-05-11T10:04:59.577Z,17.80
2019-05-11T10:07:32.126Z,17.80
2019-05-11T10:09:59.766Z,17.80
2019-05-11T10:12:29.223Z,17.90
2019-05-11T10:14:59.155Z,18.10
2019-05-11T10:17:28.882Z,18.30
2019-05-11T10:19:58.418Z,18.40
2019-05-11T10:22:28.024Z,18.40
2019-05-11T10:24:58.243Z,18.40
2019-05-11T10:27:28.109Z,18.50
2019-05-11T10:29:58.929Z,18.50
2019-05-11T10:32:28.877Z,18.50
2019-05-11T10:34:58.487Z,18.60
2019-05-11T10:37:28.368Z,18.70
2019-05-11T10:39:57.848Z,18.80
2019-05-11T10:42:28.317Z,18.80
2019-05-11T10:44:58.329Z,18.80
2019-05-11T10:47:27.939Z,18.80
2019-05-11T10:49:57.995Z,18.80
2019-05-11T10:52:28.551Z,18.70
2019-05-11T10:54:58.656Z,18.60
2019-05-11T10:57:28.429Z,18.60
2019-05-11T10:59:58.020Z,18.60
2019-05-11T11:02:27.990Z,18.60
2019-05-11T11:04:58.878Z,18.50
2019-05-11T11:07:28.912Z,18.50
2019-05-11T11:09:58.517Z,18.30
2019-05-11T11:12:28.044Z,18.20
2019-05-11T11:14:58.743Z,17.70
2019-05-11T11:17:28.859Z,17.20
2019-05-11T11:19:58.226Z,16.70
2019-05-11T11:22:37.103Z,16.30
2019-05-11T11:24:59.077Z,15.90
2019-05-11T11:27:29.178Z,15.40
2019-05-11T11:29:58.697Z,15.00
2019-05-11T11:32:28.131Z,14.40
2019-05-11T11:34:57.852Z,14.00
2019-05-11T11:37:28.132Z,13.80
2019-05-11T11:39:58.203Z,13.70
2019-05-11T11:42:28.317Z,13.50
2019-05-11T11:44:58.798Z,13.40
2019-05-11T11:47:28.396Z,13.20
2019-05-11T11:49:58.364Z,13.10
2019-05-11T11:52:27.864Z,13.00
2019-05-11T11:54:58.626Z,13.00
2019-05-11T11:57:28.458Z,12.90
2019-05-11T11:59:58.730Z,12.90
2019-05-11T12:02:28.292Z,12.90
2019-05-11T12:04:58.131Z,12.90
2019-05-11T12:07:28.497Z,12.90
2019-05-11T12:09:58.765Z,12.90
2019-05-11T12:12:28.253Z,12.80
2019-05-11T12:14:58.495Z,12.80
2019-05-11T12:17:28.546Z,12.80
2019-05-11T12:19:58.691Z,12.80
2019-05-11T12:22:28.128Z,12.80
2019-05-11T12:24:58.920Z,12.80
2019-05-11T12:27:28.770Z,12.80
2019-05-11T12:29:58.349Z,12.80
2019-05-11T12:32:38.407Z,12.80
2019-05-11T12:35:08.719Z,12.80
2019-05-11T12:37:38.006Z,12.70
2019-05-11T12:40:08.403Z,12.70
2019-05-11T12:42:38.233Z,12.70
2019-05-11T12:45:08.628Z,12.70
2019-05-11T12:47:38.532Z,12.70
2019-05-11T12:50:09.390Z,12.70
2019-05-11T12:52:38.675Z,12.70
2019-05-11T12:55:08.806Z,12.70
2019-05-11T12:57:38.750Z,12.70
2019-05-11T13:00:08.805Z,12.70
2019-05-11T13:02:38.833Z,12.70
2019-05-11T13:05:09.432Z,12.70
2019-05-11T13:07:39.383Z,12.60
2019-05-11T13:10:08.954Z,12.60
2019-05-11T13:12:38.709Z,12.60
2019-05-11T13:15:08.457Z,12.60
2019-05-11T13:17:40.848Z,12.60
2019-05-11T13:20:12.334Z,12.60
2019-05-11T13:22:40.005Z,12.60
2019-05-11T13:25:09.407Z,12.50
2019-05-11T13:27:38.952Z,12.40
2019-05-11T13:30:08.396Z,12.40
2019-05-11T13:32:38.556Z,12.30
2019-05-11T13:35:09.117Z,12.30
2019-05-11T13:37:38.801Z,12.20
2019-05-11T13:40:09.653Z,12.00
2019-05-11T13:42:38.947Z,11.90
2019-05-11T13:45:08.728Z,11.80
2019-05-11T13:47:51.280Z,11.80
2019-05-11T13:50:09.462Z,11.70
2019-05-11T13:52:38.798Z,11.60
2019-05-11T13:55:08.398Z,11.50
2019-05-11T13:57:38.352Z,11.40
2019-05-11T14:00:08.382Z,11.30
2019-05-11T14:02:38.230Z,11.10
2019-05-11T14:05:08.785Z,10.90
2019-05-11T14:07:38.362Z,10.70
2019-05-11T14:10:08.229Z,10.50
2019-05-11T14:12:38.487Z,10.20
2019-05-11T14:15:09.450Z,10.00
2019-05-11T14:17:38.780Z,9.90
2019-05-11T14:43:05.389Z,9.30
2019-05-11T14:45:44.297Z,9.10
2019-05-11T15:14:38.401Z,8.80
2019-05-11T15:17:28.163Z,8.80
2019-05-11T15:26:18.774Z,8.70
2019-05-11T15:29:08.136Z,8.80
2019-05-11T16:12:58.424Z,9.40
2019-05-11T16:21:47.026Z,9.40
2019-05-11T16:27:37.369Z,9.40
2019-05-11T16:30:20.946Z,9.40
2019-05-11T16:32:58.583Z,9.40
2019-05-11T16:38:40.723Z,9.50
2019-05-11T16:41:29.349Z,9.50
2019-05-11T16:44:19.167Z,9.50
2019-05-11T16:47:07.988Z,9.50
2019-05-11T16:55:48.374Z,9.70
2019-05-11T17:04:31.029Z,9.70
2019-05-11T17:13:28.443Z,9.60
2019-05-11T17:16:17.964Z,9.60
2019-05-11T17:30:58.693Z,9.40
2019-05-11T17:33:47.678Z,9.40
2019-05-11T17:40:10.321Z,9.40
2019-05-11T17:43:12.502Z,9.40
2019-05-11T18:03:33.080Z,9.60
2019-05-11T18:06:21.351Z,9.60
2019-05-11T18:21:05.081Z,9.60
2019-05-11T18:29:42.023Z,9.60
2019-05-11T18:32:22.546Z,9.60
2019-05-11T18:35:01.954Z,9.60
2019-05-11T18:46:33.316Z,9.40
2019-05-11T18:52:40.466Z,9.30
2019-05-11T18:55:29.055Z,9.30
2019-05-11T19:09:53.307Z,9.20
2019-05-11T19:12:41.900Z,9.20
2019-05-11T19:24:11.815Z,9.10
2019-05-11T19:42:10.519Z,9.10
2019-05-11T19:53:44.161Z,9.00
2019-05-11T20:08:42.447Z,9.00
2019-05-11T20:34:42.703Z,9.00
2019-05-11T20:55:40.207Z,8.90
2019-05-11T21:01:38.774Z,8.80
2019-05-11T21:16:38.612Z,8.80
2019-05-11T21:25:29.269Z,8.70
2019-05-11T21:58:05.552Z,8.80
2019-05-11T22:16:02.820Z,8.80
2019-05-11T22:18:51.337Z,8.70
2019-05-11T22:54:30.197Z,8.50
2019-05-11T23:00:38.729Z,8.50
2019-05-11T23:03:18.884Z,8.50
2019-05-11T23:06:08.622Z,8.50
2019-05-11T23:12:03.455Z,8.50
2019-05-11T23:14:42.807Z,8.40
2019-05-11T23:17:23.296Z,8.40
2019-05-11T23:20:02.631Z,8.40
2019-05-11T23:25:45.385Z,8.40
2019-05-11T23:28:33.760Z,8.40
2019-05-11T23:45:51.665Z,8.20
